Webkamera Lisätietoa Webcam


Yksityisiä sääasemia lähellä:

Sääasema Juupajoki

Sääasema Orivesi

Sääasema Muurame

Sääasema Jyväskylä

Sääasema Vihtavuori


Löydät sääaseman tiedot myös:

Finland Weather Exchange

European Weather Network

Weather Underground

AWEKAS

Windy.com

HAMweather, WeatherForYou, PWS Weather



Säätiedot lähimmiltä METAR asemilta

   
EFHA - Halli (Fin-Afb), Finland
Etäisyys asemalta: Kaakko 25 km
Päivitetty: 27.11.2022 01:20
Pilvistä  
Pilvistä  
   Tuuli: Kaakko 4.1 m/s
Tuuli: Kaakko 4.1 m/s
Lämpötila: -4°C
Tuulen hyytävyys: -9°C
Kastepiste: -6°C
Kosteus: 86%
Ilmanpaine: 1030 hPa
Pilvisyys: Pilvistä
Näkyvyys: Enemmän kuin 10 km
Pilvitiedot: Pilvistä 244 m
EFHA 262320Z AUTO 14008KT 9999 OVC008 M04/M06 Q1030
EFJY - Jyvaskyla (Mil/Civ), Finland
Etäisyys asemalta: Koillinen 75 km
Päivitetty: 27.11.2022 01:20
Pilvistä  
Pilvistä  
   Tuuli: Kaakko 3.1 m/s
Tuuli: Kaakko 3.1 m/s
Lämpötila: -2°C
Tuulen hyytävyys: -6°C
Kastepiste: -4°C
Kosteus: 86%
Ilmanpaine: 1031 hPa
Pilvisyys: Pilvistä
Näkyvyys: Enemmän kuin 10 km
Pilvitiedot: Pilvistä 274 m
EFJY 262320Z AUTO 14006KT 9999 OVC009 M02/M04 Q1031
EFTP - Tampere/Pirkkala, Finland
Etäisyys asemalta: Lounas 81 km
Päivitetty: 27.11.2022 01:20
Pilvistä  
Pilvistä  
   Tuuli: Kaakko 3.1 m/s
Tuuli: Kaakko 3.1 m/s
Lämpötila: -3°C
Tuulen hyytävyys: -7°C
Kastepiste: -4°C
Kosteus: 93%
Ilmanpaine: 1030 hPa
Pilvisyys: Pilvistä
Näkyvyys: Enemmän kuin 10 km
Pilvitiedot: Pilvistä 152 m
EFTP 262320Z AUTO 14006KT 9999 OVC005 M03/M04 Q1030
EFSI - Seinajoki-Ilmajoki, Finland
Etäisyys asemalta: Luode 114 km
Päivitetty: 27.11.2022 01:20
Melkein pilvistä  
Melkein pilvistä  
   Tuuli: Kaakko 2.6 m/s
Tuuli: Kaakko 2.6 m/s
Lämpötila: -2°C
Tuulen hyytävyys: -6°C
Kastepiste: -3°C
Kosteus: 93%
Ilmanpaine: 1030 hPa
Pilvisyys: Melkein pilvistä
Näkyvyys: Enemmän kuin 10 km
Pilvitiedot: Melkein pilvistä 244 m,
Melkein pilvistä 1067 m
EFSI 262320Z AUTO 14005KT 9999 BKN008 BKN035 M02/M03 Q1030
EFMI - Mikkeli, Finland
Etäisyys asemalta: Itäkaakko 147 km
Päivitetty: 27.11.2022 01:20
Pilvistä  
Pilvistä  
   Tuuli: Itäkaakko 3.6 m/s
Tuuli: Itäkaakko 3.6 m/s
Lämpötila: -2°C
Tuulen hyytävyys: -7°C
Kastepiste: -4°C
Kosteus: 86%
Ilmanpaine: 1032 hPa
Pilvisyys: Pilvistä
Näkyvyys: Enemmän kuin 10 km
Pilvitiedot: Pilvistä 335 m
EFMI 262320Z AUTO 11007KT 9999 OVC011 M02/M04 Q1032
EFPO - Pori (Mil/Civ), Finland
Etäisyys asemalta: Länsilounas 154 km
Päivitetty: 27.11.2022 01:20
Heikkoa lumisadetta, Pilvistä  
Heikkoa lumisadetta, Pilvistä  
   Tuuli: Itäkaakko 2.6 m/s
Tuuli: Itäkaakko 2.6 m/s
Lämpötila: -2°C
Tuulen hyytävyys: -6°C
Kastepiste: -3°C
Kosteus: 93%
Ilmanpaine: 1030 hPa
Pilvisyys: Pilvistä
Näkyvyys: 5 km
Pilvitiedot: Melkein pilvistä 183 m,
Pilvistä 579 m
EFPO 262320Z AUTO 12005KT 5000 -SN BKN006 OVC019 M02/M03 Q1030
EFUT - Utti (Fin-Afb), Finland
Etäisyys asemalta: Kaakko 180 km
Päivitetty: 27.11.2022 01:20
Pilvistä  
Pilvistä  
   Tuuli: Itä 4.1 m/s
Tuuli: Itä 4.1 m/s
Lämpötila: -6°C
Tuulen hyytävyys: -12°C
Kastepiste: -8°C
Kosteus: 86%
Ilmanpaine: 1031 hPa
Pilvisyys: Pilvistä
Näkyvyys: Enemmän kuin 10 km
Pilvitiedot: Pilvistä 244 m
EFUT 262320Z AUTO 08008KT 9999 OVC008 M06/M08 Q1031
EFVA - Vaasa, Finland
Etäisyys asemalta: Luode 180 km
Päivitetty: 27.11.2022 01:20
Pilvistä  
Pilvistä  
   Tuuli: Eteläkaakko 2.1 m/s
Tuuli: Eteläkaakko 2.1 m/s
Lämpötila: -2°C
Tuulen hyytävyys: -5°C
Kastepiste: -3°C
Kosteus: 93%
Ilmanpaine: 1030 hPa
Pilvisyys: Pilvistä
Näkyvyys: Enemmän kuin 10 km
Pilvitiedot: Pilvistä 1006 m
EFVA 262320Z AUTO 15004KT 9999 OVC033 M02/M03 Q1030
EFHK - Helsinki/Vantaa, Finland
Etäisyys asemalta: Etelä 191 km
Päivitetty: 27.11.2022 01:20
Heikkoa lumisadetta, Melkein pilvistä  
Heikkoa lumisadetta, Melkein pilvistä  
   Tuuli: Koillinen 4.1 m/s
Tuuli: Koillinen 4.1 m/s
Lämpötila: -4°C
Tuulen hyytävyys: -9°C
Kastepiste: -4°C
Kosteus: 100%
Ilmanpaine: 1030 hPa
Pilvisyys: Melkein pilvistä
Näkyvyys: 4 km
Pilvitiedot: Melkein pilvistä 213 m,
Melkein pilvistä 610 m
EFHK 262320Z 04008KT 4000 -SN BKN007 BKN020 M04/M04 Q1030 TEMPO 2000

Alkuperäinen skripti  Saratoga-weather.org Sovitettu myös templatelle  Weerstation Leuven

Laitteet joita käytämme:

Sääasema
Davis VP2

Sääasemaohjelma
Cumulus

Sääaseman palvelin
HP ProBook 6460b

Palveluntarjoaja
Radicenter

Davis VP2

Cumulus

HP ProBook 6460b

Radicenter




Flag Counter Cumulus Top Weather Sites